Time;durP1;ratioP1;P1;durP2;ratioP2;P2;SDS_P1;SDS_P2;PMS_P1;PMS_P2;Temp;Humidity;BMP_temperature;BMP_pressure;BME280_temperature;BME280_humidity;BME280_pressure;Samples;Min_cycle;Max_cycle;Signal;HPM_P1;HPM_P2
2022/12/01 00:00:31;;;;;;;11.93;5.47;;;;;;;4.58;97.08;102944.31;5076522;27;96609;-30
2022/12/01 00:02:57;;;;;;;9.85;5.07;;;;;;;4.58;97.21;102951.50;5076695;27;96836;-30
2022/12/01 00:05:22;;;;;;;7.28;3.60;;;;;;;4.55;97.17;102949.69;5057931;27;101351;-30
2022/12/01 00:07:48;;;;;;;10.30;5.78;;;;;;;4.52;97.16;102943.44;5076238;27;98533;-30
2022/12/01 00:10:26;;;;;;;7.82;4.13;;;;;;;4.51;96.88;102950.59;5076533;27;96555;-31
2022/12/01 00:12:56;;;;;;;9.02;5.03;;;;;;;4.52;97.20;102952.38;5058216;27;96667;-30
2022/12/01 00:15:24;;;;;;;18.05;6.22;;;;;;;4.48;97.36;102934.50;5075969;27;97056;-30
2022/12/01 00:17:49;;;;;;;11.88;5.80;;;;;;;4.47;97.18;102930.91;5058175;27;100553;-30
2022/12/01 00:20:16;;;;;;;12.80;5.90;;;;;;;4.46;97.27;102942.56;5076332;27;96839;-31
2022/12/01 00:22:43;;;;;;;11.95;5.07;;;;;;;4.43;96.97;102947.03;5037771;27;96862;-31
2022/12/01 00:25:09;;;;;;;15.52;5.90;;;;;;;4.40;96.78;102942.56;5033505;28;101176;-30
2022/12/01 00:27:34;;;;;;;10.45;4.93;;;;;;;4.39;96.84;102953.31;5035303;27;99328;-30
2022/12/01 00:29:59;;;;;;;16.38;4.43;;;;;;;4.36;96.76;102945.25;5035307;28;97530;-31
2022/12/01 00:32:24;;;;;;;12.10;5.32;;;;;;;4.36;96.77;102951.53;5035055;28;104464;-30
2022/12/01 00:34:50;;;;;;;14.15;6.53;;;;;;;4.38;97.13;102954.19;5035078;28;99365;-30
2022/12/01 00:37:15;;;;;;;8.90;4.82;;;;;;;4.38;97.01;102954.19;5034631;28;113955;-32
2022/12/01 00:39:40;;;;;;;10.57;5.65;;;;;;;4.38;97.04;102954.19;5035392;27;96658;-31
2022/12/01 00:42:06;;;;;;;9.02;4.63;;;;;;;4.39;97.28;102951.53;5036004;27;96517;-31
2022/12/01 00:44:31;;;;;;;10.32;5.68;;;;;;;4.37;97.07;102947.94;5034267;28;112676;-29
2022/12/01 00:46:56;;;;;;;12.98;5.35;;;;;;;4.33;97.28;102948.84;5035170;28;97808;-30
2022/12/01 00:49:22;;;;;;;8.40;4.40;;;;;;;4.34;97.05;102947.03;5034930;27;96488;-30
2022/12/01 00:51:47;;;;;;;11.05;5.05;;;;;;;4.34;97.27;102947.97;5035223;28;96787;-30
2022/12/01 00:54:12;;;;;;;18.55;7.13;;;;;;;4.35;97.17;102948.84;5034951;27;97837;-30
2022/12/01 00:56:37;;;;;;;9.95;6.00;;;;;;;4.32;97.06;102948.88;5035065;28;97721;-31
2022/12/01 00:59:03;;;;;;;15.25;6.38;;;;;;;4.31;97.34;102947.06;5034070;28;110368;-31
2022/12/01 01:01:28;;;;;;;9.43;5.25;;;;;;;4.35;97.33;102956.91;5034381;27;97836;-30
2022/12/01 01:03:53;;;;;;;11.75;5.68;;;;;;;4.34;97.35;102944.34;5034809;27;101733;-30
2022/12/01 01:06:19;;;;;;;7.60;4.25;;;;;;;4.34;97.54;102957.78;5034142;28;119896;-29
2022/12/01 01:08:45;;;;;;;9.45;5.35;;;;;;;4.35;97.80;102959.59;5035065;27;96611;-31
2022/12/01 01:11:11;;;;;;;9.85;5.50;;;;;;;4.38;97.75;102962.25;5035135;27;96627;-30
2022/12/01 01:13:37;;;;;;;26.20;5.63;;;;;;;4.38;97.60;102965.81;5032569;28;101034;-30
2022/12/01 01:16:06;;;;;;;16.73;6.18;;;;;;;4.39;98.17;102961.38;5032983;28;100885;-31
2022/12/01 01:18:31;;;;;;;14.55;6.10;;;;;;;4.41;98.14;102967.59;5033343;28;96990;-30
2022/12/01 01:20:59;;;;;;;13.00;5.93;;;;;;;4.41;98.08;102970.28;5036763;27;96841;-30
2022/12/01 01:23:25;;;;;;;13.20;6.65;;;;;;;4.42;98.05;102962.25;5056760;27;100874;-30
2022/12/01 01:25:50;;;;;;;7.82;4.65;;;;;;;4.43;98.23;102968.50;5056776;27;101125;-30
2022/12/01 01:28:16;;;;;;;9.18;5.28;;;;;;;4.44;98.24;102973.88;5075566;27;96734;-30
2022/12/01 01:30:42;;;;;;;19.13;6.68;;;;;;;4.47;98.23;102976.53;5075894;27;96822;-30
2022/12/01 01:33:07;;;;;;;13.48;5.43;;;;;;;4.45;98.10;102978.31;5075004;27;106155;-30
2022/12/01 01:35:32;;;;;;;12.52;5.50;;;;;;;4.47;98.49;102981.91;5074703;27;115744;-30
2022/12/01 01:37:57;;;;;;;14.45;6.47;;;;;;;4.46;98.58;102977.44;5075020;27;96569;-30
2022/12/01 01:40:23;;;;;;;12.90;4.97;;;;;;;4.49;98.58;102978.34;5074896;27;103277;-31
2022/12/01 01:42:48;;;;;;;9.65;5.88;;;;;;;4.48;98.07;102972.06;5074871;27;97437;-30
2022/12/01 01:45:24;;;;;;;11.18;6.93;;;;;;;4.49;98.14;102979.22;5075117;27;106191;-30
2022/12/01 01:47:52;;;;;;;15.60;5.93;;;;;;;4.47;98.59;102971.16;5056829;27;96585;-30
2022/12/01 01:50:21;;;;;;;9.98;5.15;;;;;;;4.48;98.28;102974.75;5075353;27;96801;-30
2022/12/01 01:52:52;;;;;;;12.43;5.25;;;;;;;4.49;98.61;102972.97;5056468;27;101117;-30
2022/12/01 01:55:18;;;;;;;9.65;5.60;;;;;;;4.50;98.33;102980.13;5056552;27;100843;-31
2022/12/01 01:57:44;;;;;;;10.95;4.78;;;;;;;4.51;98.28;102981.91;5056649;27;96571;-30
2022/12/01 02:00:14;;;;;;;9.55;5.65;;;;;;;4.52;98.64;102983.69;5075242;27;96589;-30
2022/12/01 02:02:42;;;;;;;11.80;6.13;;;;;;;4.53;98.98;102981.03;5055847;27;102119;-30
2022/12/01 02:05:10;;;;;;;12.23;5.78;;;;;;;4.52;99.08;102983.69;5074748;27;97244;-29
2022/12/01 02:07:38;;;;;;;12.13;6.18;;;;;;;4.54;98.74;102990.84;5056547;27;96622;-31
2022/12/01 02:10:06;;;;;;;11.02;6.30;;;;;;;4.53;98.79;102988.16;5039763;27;96888;-29
2022/12/01 02:13:02;;;;;;;19.25;7.20;;;;;;;4.53;98.99;102986.38;5074512;27;99260;-31
2022/12/01 02:16:02;;;;;;;13.52;6.68;;;;;;;4.53;99.02;102985.47;5078094;27;97931;-30
2022/12/01 02:18:50;;;;;;;14.32;6.75;;;;;;;4.54;99.10;102974.75;5078482;27;96754;-30
2022/12/01 02:21:34;;;;;;;18.45;4.95;;;;;;;4.58;98.96;102978.34;5059875;27;96581;-30
2022/12/01 02:24:14;;;;;;;14.15;6.43;;;;;;;4.60;98.96;102980.13;5059500;27;101524;-29
2022/12/01 02:26:51;;;;;;;15.68;7.50;;;;;;;4.59;99.16;102970.25;5077595;27;99156;-30
2022/12/01 02:29:25;;;;;;;11.20;5.57;;;;;;;4.63;99.21;102971.16;5059267;27;96560;-30
2022/12/01 02:32:14;;;;;;;15.43;5.93;;;;;;;4.63;99.06;102964.00;5078489;27;96603;-30
2022/12/01 02:34:46;;;;;;;15.80;6.82;;;;;;;4.57;98.78;102971.16;5059478;27;101174;-30
2022/12/01 02:37:17;;;;;;;;;;;;;;;4.60;98.95;102974.75;5078085;27;99225;-31
2022/12/01 02:39:58;;;;;;;9.75;5.07;;;;;;;4.58;99.31;102968.47;5078461;27;96566;-30
2022/12/01 02:42:51;;;;;;;7.63;4.70;;;;;;;4.60;99.66;102957.72;5059796;27;96730;-30
2022/12/01 02:45:42;;;;;;;14.40;5.72;;;;;;;4.63;99.04;102955.94;5077761;27;97781;-30
2022/12/01 02:48:14;;;;;;;17.20;5.90;;;;;;;4.63;99.10;102957.72;5070214;27;97898;-30
2022/12/01 02:50:41;;;;;;;11.68;6.15;;;;;;;4.64;99.06;102957.72;5059517;27;96663;-31
2022/12/01 02:53:10;;;;;;;10.48;5.68;;;;;;;4.64;99.30;102951.47;5059283;27;96860;-30
2022/12/01 02:55:35;;;;;;;12.57;6.57;;;;;;;4.67;98.79;102956.81;5058519;27;101576;-30
2022/12/01 02:58:00;;;;;;;16.60;6.80;;;;;;;4.65;99.20;102947.91;5077403;27;99125;-30
2022/12/01 03:00:29;;;;;;;18.80;6.63;;;;;;;4.67;99.21;102949.66;5078256;27;96524;-30
2022/12/01 03:03:20;;;;;;;16.27;6.18;;;;;;;4.71;98.93;102955.03;5059215;27;96766;-29
2022/12/01 03:05:57;;;;;;;15.38;6.97;;;;;;;4.68;98.90;102954.13;5058947;27;100781;-31
2022/12/01 03:08:22;;;;;;;15.45;6.70;;;;;;;4.69;98.88;102955.00;5077179;27;99717;-30
2022/12/01 03:10:52;;;;;;;9.68;5.03;;;;;;;4.70;98.82;102955.94;5077904;27;96619;-30
2022/12/01 03:13:17;;;;;;;10.95;5.53;;;;;;;4.70;99.07;102964.00;5059495;27;96736;-30
2022/12/01 03:15:54;;;;;;;14.60;6.90;;;;;;;4.66;98.88;102961.28;5077069;27;98158;-30
2022/12/01 03:18:31;;;;;;;11.52;5.70;;;;;;;4.68;98.83;102969.34;5076813;27;98687;-30
2022/12/01 03:21:22;;;;;;;16.05;6.45;;;;;;;4.67;99.03;102963.09;5057900;27;96687;-30
2022/12/01 03:23:54;;;;;;;9.13;5.05;;;;;;;4.65;99.32;102962.19;5077116;27;96733;-30
2022/12/01 03:26:23;;;;;;;10.82;5.63;;;;;;;4.64;99.12;102957.72;5058506;27;99043;-30
2022/12/01 03:28:53;;;;;;;13.02;6.85;;;;;;;4.62;99.04;102954.16;5058513;27;101540;-30
2022/12/01 03:31:24;;;;;;;10.88;5.13;;;;;;;4.62;98.84;102967.59;5058563;27;96730;-30
2022/12/01 03:33:57;;;;;;;10.93;6.10;;;;;;;4.57;98.96;102961.31;5058675;27;96684;-32
2022/12/01 03:36:35;;;;;;;10.60;6.13;;;;;;;4.58;98.89;102960.44;5076813;27;99524;-30
2022/12/01 03:39:06;;;;;;;12.65;6.55;;;;;;;4.55;99.00;102956.84;5077527;27;97762;-29
2022/12/01 03:41:42;;;;;;;12.80;6.50;;;;;;;4.51;98.64;102944.34;5058499;27;96614;-30
2022/12/01 03:44:12;;;;;;;11.32;4.80;;;;;;;4.54;98.70;102960.44;5058770;27;96666;-30
2022/12/01 03:47:00;;;;;;;14.95;7.90;;;;;;;4.51;98.82;102960.47;5057785;27;101174;-30
2022/12/01 03:49:26;;;;;;;11.70;6.15;;;;;;;4.49;98.88;102957.75;5058212;27;100816;-31
2022/12/01 03:52:08;;;;;;;10.85;4.95;;;;;;;4.49;99.00;102963.13;5076777;27;96465;-30
2022/12/01 03:54:36;;;;;;;7.45;4.53;;;;;;;4.47;98.98;102965.81;5077084;27;96483;-30
2022/12/01 03:57:08;;;;;;;6.78;4.20;;;;;;;4.43;99.00;102947.94;5076792;27;97953;-31
2022/12/01 03:59:35;;;;;;;14.23;5.55;;;;;;;4.43;99.08;102955.06;5058095;27;100847;-30
2022/12/01 04:02:01;;;;;;;17.70;7.57;;;;;;;4.42;98.89;102948.81;5058244;27;96582;-30
2022/12/01 04:04:26;;;;;;;14.15;7.05;;;;;;;4.42;99.06;102953.31;5076959;27;96785;-30
2022/12/01 04:06:52;;;;;;;12.13;5.63;;;;;;;4.41;98.91;102956.88;5076793;27;97392;-30
2022/12/01 04:09:17;;;;;;;17.48;7.32;;;;;;;4.37;99.05;102953.31;5076277;27;99716;-30
2022/12/01 04:14:28;;;;;;;14.35;6.57;;;;;;;4.39;99.17;102964.06;5076816;27;96625;-31
2022/12/01 04:16:54;;;;;;;15.18;5.55;;;;;;;4.41;99.20;102970.28;5057348;27;100883;-30
2022/12/01 04:19:19;;;;;;;10.43;5.82;;;;;;;4.36;99.27;102972.09;5075280;27;117541;-30
2022/12/01 04:21:44;;;;;;;13.40;6.47;;;;;;;4.36;99.23;102970.31;5075948;27;99798;-30
2022/12/01 04:24:11;;;;;;;12.23;5.95;;;;;;;4.36;99.16;102969.41;5076682;27;96785;-30
2022/12/01 04:26:36;;;;;;;14.82;5.95;;;;;;;4.35;98.96;102965.84;5076125;27;97358;-31
2022/12/01 04:29:05;;;;;;;12.77;6.18;;;;;;;4.35;99.21;102965.84;5075909;27;113517;-30
2022/12/01 04:31:31;;;;;;;16.70;6.68;;;;;;;4.32;99.19;102964.97;5076181;27;96662;-30
2022/12/01 04:33:58;;;;;;;13.38;5.70;;;;;;;4.34;99.08;102973.88;5076347;27;96528;-30
2022/12/01 04:36:24;;;;;;;15.43;6.28;;;;;;;4.32;99.31;102965.84;5056280;27;99125;-30
2022/12/01 04:38:50;;;;;;;18.05;6.57;;;;;;;4.34;99.21;102968.50;5057423;27;100898;-30
2022/12/01 04:41:15;;;;;;;14.77;6.95;;;;;;;4.36;98.82;102977.44;5075934;27;97004;-30
2022/12/01 04:43:41;;;;;;;17.92;6.53;;;;;;;4.32;98.93;102970.31;5075988;27;96811;-29
2022/12/01 04:46:07;;;;;;;16.08;7.72;;;;;;;4.33;99.34;102961.38;5075605;27;97856;-30
2022/12/01 04:48:37;;;;;;;13.40;7.05;;;;;;;4.34;99.29;102974.78;5057172;27;100870;-30
2022/12/01 04:51:04;;;;;;;13.60;6.18;;;;;;;4.36;99.21;102964.03;5057654;27;96684;-30
2022/12/01 04:53:30;;;;;;;13.85;5.85;;;;;;;4.32;99.31;102970.31;5057835;27;96878;-30
2022/12/01 04:55:56;;;;;;;10.05;5.20;;;;;;;4.34;99.27;102971.19;5057285;27;100869;-30
2022/12/01 04:58:21;;;;;;;12.55;5.90;;;;;;;4.35;99.10;102973.88;5075488;27;107858;-30
2022/12/01 05:00:46;;;;;;;11.32;5.05;;;;;;;4.33;99.55;102975.66;5075463;27;96692;-29
2022/12/01 05:03:12;;;;;;;13.57;6.85;;;;;;;4.35;99.26;102964.94;5075757;27;96726;-31
2022/12/01 05:05:37;;;;;;;12.40;6.93;;;;;;;4.35;99.61;102973.88;5075604;27;97806;-30
2022/12/01 05:08:02;;;;;;;9.00;5.88;;;;;;;4.38;99.46;102978.34;5075245;27;99512;-32
2022/12/01 05:10:28;;;;;;;11.93;6.15;;;;;;;4.38;99.71;102973.88;5076041;27;96701;-30
2022/12/01 05:12:54;;;;;;;10.35;5.70;;;;;;;4.42;99.44;102974.78;5075549;27;96885;-31
2022/12/01 05:15:20;;;;;;;15.88;6.68;;;;;;;4.40;99.51;102973.88;5075120;27;97428;-30
2022/12/01 05:17:45;;;;;;;9.68;5.57;;;;;;;4.41;99.65;102970.28;5057086;27;101061;-30
2022/12/01 05:23:01;;;;;;;13.27;5.88;;;;;;;4.40;99.41;102974.75;5075665;27;96740;-32
2022/12/01 05:25:26;;;;;;;14.65;5.63;;;;;;;4.41;99.92;102976.56;5074627;27;99555;-30
2022/12/01 05:27:52;;;;;;;11.27;5.70;;;;;;;4.42;99.47;102974.78;5075337;27;97769;-30
2022/12/01 05:30:17;;;;;;;13.93;6.55;;;;;;;4.42;99.59;102982.81;5075866;27;96665;-31
2022/12/01 05:32:42;;;;;;;12.85;6.60;;;;;;;4.40;99.37;102979.25;5075042;27;103971;-30
2022/12/01 05:35:08;;;;;;;12.73;6.50;;;;;;;4.40;99.38;102979.25;5074787;27;112722;-30
2022/12/01 05:37:33;;;;;;;12.52;6.30;;;;;;;4.40;99.48;102981.91;5075225;27;98183;-31
2022/12/01 05:39:59;;;;;;;10.65;5.35;;;;;;;4.41;99.50;102979.25;5075431;27;96612;-31
2022/12/01 05:42:25;;;;;;;13.68;6.88;;;;;;;4.40;99.74;102981.91;5057106;27;96866;-30
2022/12/01 05:44:50;;;;;;;16.42;6.20;;;;;;;4.41;99.47;102978.34;5075243;27;97762;-30
2022/12/01 05:47:16;;;;;;;12.18;5.65;;;;;;;4.41;99.83;102981.94;5075643;27;97903;-31
2022/12/01 05:49:41;;;;;;;15.82;6.05;;;;;;;4.38;99.46;102973.88;5078568;27;96556;-31
2022/12/01 05:52:06;;;;;;;15.85;6.22;;;;;;;4.39;99.64;102974.78;5078504;27;102417;-30
2022/12/01 05:54:32;;;;;;;14.50;7.30;;;;;;;4.40;99.75;102973.88;5077937;27;114406;-31
2022/12/01 05:56:57;;;;;;;12.70;7.07;;;;;;;4.39;99.47;102977.47;5077864;27;112377;-30
2022/12/01 05:59:22;;;;;;;16.67;6.38;;;;;;;4.38;99.66;102964.94;5078833;27;96492;-30
2022/12/01 06:01:48;;;;;;;14.60;5.55;;;;;;;4.39;99.39;102966.72;5078537;27;96763;-31
2022/12/01 06:04:13;;;;;;;16.45;6.22;;;;;;;4.36;99.42;102973.00;5078353;27;107469;-30
2022/12/01 06:06:39;;;;;;;16.85;6.15;;;;;;;4.39;99.78;102977.47;5079068;27;97168;-30
2022/12/01 06:09:04;;;;;;;16.80;7.60;;;;;;;4.37;99.57;102982.81;5078816;27;96512;-30
2022/12/01 06:11:29;;;;;;;16.50;6.95;;;;;;;4.36;99.16;102991.78;5078595;27;96777;-30
2022/12/01 06:13:55;;;;;;;10.50;5.25;;;;;;;4.35;99.70;103000.72;5077725;27;97989;-30
2022/12/01 06:16:20;;;;;;;9.80;5.20;;;;;;;4.31;99.39;102993.56;5077837;27;98772;-30
2022/12/01 06:18:45;;;;;;;17.63;5.95;;;;;;;4.33;99.15;103002.50;5078195;27;96553;-31
2022/12/01 06:21:11;;;;;;;15.13;5.90;;;;;;;4.29;99.21;102994.44;5078017;27;96732;-30
2022/12/01 06:23:36;;;;;;;13.25;6.80;;;;;;;4.27;99.52;103002.53;5078082;27;99248;-29
2022/12/01 06:26:02;;;;;;;9.60;4.30;;;;;;;4.25;99.13;103002.50;5078050;27;98243;-30
2022/12/01 06:28:27;;;;;;;13.65;6.78;;;;;;;4.23;99.50;102998.03;5059903;27;96613;-30
2022/12/01 06:30:52;;;;;;;14.05;5.53;;;;;;;4.23;99.27;103004.28;5078482;27;96820;-31
2022/12/01 06:33:18;;;;;;;12.70;5.55;;;;;;;4.20;99.83;102993.56;5077944;27;103033;-30
2022/12/01 06:35:43;;;;;;;11.93;5.85;;;;;;;4.22;99.61;103001.63;5077431;27;118150;-30
2022/12/01 06:38:08;;;;;;;14.27;6.72;;;;;;;4.23;99.84;102998.03;5077825;27;96543;-31
2022/12/01 06:40:34;;;;;;;8.95;4.75;;;;;;;4.22;99.49;103007.88;5078052;27;96779;-30
2022/12/01 06:43:01;;;;;;;16.40;5.28;;;;;;;4.20;99.76;102998.94;5077715;27;97789;-30
2022/12/01 06:45:27;;;;;;;12.90;4.93;;;;;;;4.20;99.46;103001.63;5077921;27;97261;-31
2022/12/01 06:47:54;;;;;;;16.05;6.53;;;;;;;4.18;99.69;102999.84;5078186;27;96589;-31
2022/12/01 06:50:19;;;;;;;8.73;5.00;;;;;;;4.20;99.44;103008.78;5059471;27;96924;-30
2022/12/01 06:52:44;;;;;;;12.15;4.53;;;;;;;4.19;99.61;103001.59;5077740;27;98158;-30
2022/12/01 06:55:10;;;;;;;15.18;7.90;;;;;;;4.17;99.43;103009.69;5078118;27;98259;-30
2022/12/01 06:57:35;;;;;;;15.63;6.47;;;;;;;4.17;99.63;103008.75;5077508;27;98620;-30
2022/12/01 07:00:00;;;;;;;27.15;5.93;;;;;;;4.14;99.40;103012.34;5076609;27;103295;-30
2022/12/01 07:02:26;;;;;;;12.73;6.20;;;;;;;4.12;99.33;103008.75;5077070;27;97872;-30
2022/12/01 07:04:51;;;;;;;13.85;4.47;;;;;;;4.16;99.29;103021.28;5077304;27;99548;-30
2022/12/01 07:07:16;;;;;;;15.93;5.55;;;;;;;4.12;99.24;103019.47;5077103;27;107179;-31
2022/12/01 07:09:41;;;;;;;8.40;4.43;;;;;;;4.12;99.22;103015.91;5077784;27;96794;-30
2022/12/01 07:12:07;;;;;;;9.27;4.93;;;;;;;4.11;99.52;103015.03;5077198;27;98412;-31
2022/12/01 07:14:32;;;;;;;12.05;5.65;;;;;;;4.13;99.38;103020.41;5058676;27;99289;-30
2022/12/01 07:16:58;;;;;;;8.75;4.28;;;;;;;4.11;99.09;103015.03;5077386;27;96807;-30
2022/12/01 07:19:23;;;;;;;11.02;6.13;;;;;;;4.07;99.12;103023.94;5077520;27;96781;-30
2022/12/01 07:21:49;;;;;;;11.75;4.90;;;;;;;4.06;99.35;103027.53;5076331;27;97932;-30
2022/12/01 07:24:14;;;;;;;9.48;4.53;;;;;;;4.07;99.08;103020.38;5076860;27;99103;-29
2022/12/01 07:26:40;;;;;;;13.63;4.88;;;;;;;4.05;99.03;103023.06;5077087;27;96554;-30
2022/12/01 07:29:07;;;;;;;18.60;6.82;;;;;;;4.04;99.29;103029.31;5058896;27;96886;-30
2022/12/01 07:31:33;;;;;;;15.77;5.63;;;;;;;4.02;99.46;103032.00;5076960;27;97383;-30
2022/12/01 07:33:58;;;;;;;10.93;4.97;;;;;;;4.05;99.65;103036.47;5076924;27;98384;-30
2022/12/01 07:36:24;;;;;;;7.22;4.65;;;;;;;4.04;99.58;103040.94;5077215;27;96507;-30
2022/12/01 07:38:49;;;;;;;12.20;4.32;;;;;;;4.07;99.57;103044.53;5077012;27;96803;-30
2022/12/01 07:41:19;;;;;;;11.25;5.35;;;;;;;4.04;99.54;103046.31;5076387;27;109351;-30
2022/12/01 07:43:46;;;;;;;8.57;5.25;;;;;;;4.04;99.23;103043.63;5077103;27;99596;-30
2022/12/01 07:46:25;;;;;;;15.15;5.85;;;;;;;4.07;99.53;103040.03;5058616;27;96721;-30
2022/12/01 07:48:51;;;;;;;16.95;5.43;;;;;;;4.08;99.61;103047.22;5076813;27;97593;-30
2022/12/01 07:51:17;;;;;;;11.82;5.50;;;;;;;4.09;99.35;103058.81;5057765;27;101528;-30
2022/12/01 07:53:48;;;;;;;10.30;5.13;;;;;;;4.11;99.37;103057.94;5076439;27;97271;-30
2022/12/01 07:56:13;;;;;;;9.45;5.28;;;;;;;4.10;99.39;103052.56;5058522;27;96552;-30
2022/12/01 07:58:39;;;;;;;15.25;5.97;;;;;;;4.16;99.69;103066.00;5077034;27;96803;-30
2022/12/01 08:01:11;;;;;;;8.27;5.50;;;;;;;4.17;99.22;103066.00;5076545;27;98054;-30
2022/12/01 08:03:37;;;;;;;10.80;5.55;;;;;;;4.17;99.45;103060.63;5058055;27;100911;-30
2022/12/01 08:06:04;;;;;;;14.57;6.70;;;;;;;4.17;99.46;103074.03;5058359;27;96540;-30
2022/12/01 08:08:31;;;;;;;15.13;6.45;;;;;;;4.19;99.70;103066.88;5058632;27;96814;-31
2022/12/01 08:11:00;;;;;;;11.45;5.47;;;;;;;4.20;99.73;103076.72;5056736;27;101729;-31
2022/12/01 08:13:25;;;;;;;13.20;5.55;;;;;;;4.24;99.66;103069.56;5057619;27;100858;-30
2022/12/01 08:15:51;;;;;;;10.80;4.32;;;;;;;4.23;99.41;103071.34;5076114;27;96565;-30
2022/12/01 08:18:16;;;;;;;15.90;5.70;;;;;;;4.29;99.38;103062.44;5076459;27;96751;-31
2022/12/01 08:20:41;;;;;;;11.07;5.22;;;;;;;4.27;99.09;103064.22;5075844;27;99382;-30
2022/12/01 08:23:07;;;;;;;15.82;6.45;;;;;;;4.26;99.23;103071.34;5075390;27;115688;-31
2022/12/01 08:25:32;;;;;;;11.00;5.28;;;;;;;4.27;99.43;103074.94;5076345;27;96486;-30
2022/12/01 08:27:59;;;;;;;16.92;5.97;;;;;;;4.29;99.68;103066.88;5076569;27;96767;-30
2022/12/01 08:30:24;;;;;;;14.57;6.75;;;;;;;4.30;99.62;103074.94;5076205;27;97538;-30
2022/12/01 08:32:53;;;;;;;8.50;4.88;;;;;;;4.31;99.11;103081.19;5076093;27;99617;-30
2022/12/01 08:35:18;;;;;;;12.27;5.05;;;;;;;4.32;98.97;103080.31;5057562;27;96662;-30
2022/12/01 08:37:44;;;;;;;13.95;6.18;;;;;;;4.29;99.33;103080.28;5076542;27;96767;-29
2022/12/01 08:40:09;;;;;;;13.55;6.32;;;;;;;4.28;99.00;103086.56;5075566;27;98016;-30
2022/12/01 08:42:35;;;;;;;10.48;5.68;;;;;;;4.28;99.71;103083.88;5076069;27;97051;-30
2022/12/01 08:45:00;;;;;;;18.02;7.25;;;;;;;4.32;99.14;103088.38;5075960;27;102839;-30
2022/12/01 08:47:27;;;;;;;12.00;6.22;;;;;;;4.31;99.27;103087.44;5076268;27;96766;-31
2022/12/01 08:49:53;;;;;;;14.93;7.35;;;;;;;4.33;99.71;103082.09;5057164;27;101053;-30
2022/12/01 08:52:19;;;;;;;9.00;4.97;;;;;;;4.33;99.25;103079.41;5075787;27;97768;-31
2022/12/01 08:54:44;;;;;;;15.52;5.45;;;;;;;4.35;99.89;103083.00;5075806;27;96519;-30
2022/12/01 08:57:10;;;;;;;11.32;5.72;;;;;;;4.37;99.93;103084.78;5076404;27;96751;-30
2022/12/01 08:59:35;;;;;;;13.50;5.85;;;;;;;4.39;99.53;103090.16;5075399;27;99294;-30
2022/12/01 09:02:00;;;;;;;15.43;7.20;;;;;;;4.41;99.74;103081.22;5075386;27;109803;-30
2022/12/01 09:04:26;;;;;;;18.23;6.60;;;;;;;4.41;99.53;103080.28;5075140;27;97294;-29
2022/12/01 09:06:53;;;;;;;9.23;4.82;;;;;;;4.44;99.29;103077.63;5075969;27;96745;-30
2022/12/01 09:09:22;;;;;;;11.23;5.15;;;;;;;4.49;99.58;103085.69;5057020;27;100543;-30
2022/12/01 09:11:48;;;;;;;12.18;6.05;;;;;;;4.50;99.29;103076.72;5056838;27;100891;-30
2022/12/01 09:14:15;;;;;;;16.48;7.18;;;;;;;4.54;99.21;103079.41;5075497;27;96641;-31
2022/12/01 09:16:42;;;;;;;15.10;5.80;;;;;;;4.53;99.52;103071.34;5057035;27;96806;-30
2022/12/01 09:19:08;;;;;;;14.00;5.55;;;;;;;4.57;99.58;103068.66;5056531;27;100805;-30
2022/12/01 09:21:36;;;;;;;9.65;4.97;;;;;;;4.60;99.08;103076.72;5056630;27;100913;-29
2022/12/01 09:24:02;;;;;;;11.77;5.30;;;;;;;4.68;99.41;103079.41;5056757;27;96700;-29
2022/12/01 09:26:28;;;;;;;14.15;5.90;;;;;;;4.71;99.61;103076.72;5057207;27;96799;-30
2022/12/01 09:28:57;;;;;;;12.13;5.78;;;;;;;4.80;99.39;103086.56;5074967;27;97936;-30
2022/12/01 09:31:22;;;;;;;12.95;6.18;;;;;;;4.81;99.08;103078.47;5056792;27;100977;-30
2022/12/01 09:33:53;;;;;;;21.25;6.85;;;;;;;4.88;99.22;103082.03;5075527;27;96573;-29
2022/12/01 09:36:19;;;;;;;17.55;5.53;;;;;;;4.95;99.29;103088.31;5075458;27;96690;-30
2022/12/01 09:38:44;;;;;;;16.10;5.50;;;;;;;4.98;99.21;103078.47;5074286;27;115617;-30
2022/12/01 09:41:24;;;;;;;11.43;6.00;;;;;;;5.08;99.03;103090.97;5075281;27;97769;-30
2022/12/01 09:44:29;;;;;;;7.82;4.30;;;;;;;5.15;98.72;103090.94;5056960;27;96665;-29
2022/12/01 09:47:11;;;;;;;14.10;3.92;;;;;;;5.17;98.54;103075.72;5072290;27;96751;-30
2022/12/01 09:49:40;;;;;;;14.77;6.25;;;;;;;5.27;98.30;103085.56;5056472;27;100975;-32
2022/12/01 09:52:11;;;;;;;11.45;5.03;;;;;;;5.34;98.34;103079.25;5074742;27;101759;-30
2022/12/01 09:54:36;;;;;;;14.77;6.20;;;;;;;5.40;98.11;103072.94;5056163;27;96615;-32
2022/12/01 09:57:02;;;;;;;10.13;5.38;;;;;;;5.41;98.17;103075.66;5075587;27;96733;-30
2022/12/01 09:59:34;;;;;;;16.75;6.45;;;;;;;5.43;97.73;103073.81;5074913;27;98190;-31
2022/12/01 10:02:23;;;;;;;11.40;5.20;;;;;;;5.47;98.15;103069.34;5056326;27;100748;-30
2022/12/01 10:04:51;;;;;;;11.30;5.70;;;;;;;5.53;98.15;103063.94;5074873;27;96690;-31
2022/12/01 10:07:19;;;;;;;10.13;4.60;;;;;;;5.62;98.22;103068.38;5056630;27;96805;-30
2022/12/01 10:09:55;;;;;;;14.15;6.03;;;;;;;5.71;97.92;103062.94;5074785;27;97494;-29
2022/12/01 10:12:26;;;;;;;12.55;5.85;;;;;;;5.81;97.68;103058.41;5075177;27;97789;-30
2022/12/01 10:14:56;;;;;;;19.08;7.40;;;;;;;5.84;97.41;103053.91;5075118;27;96545;-30
2022/12/01 10:17:46;;;;;;;16.42;6.30;;;;;;;5.95;97.45;103054.75;5056238;27;96724;-30
2022/12/01 10:20:22;;;;;;;13.48;6.25;;;;;;;5.99;96.83;103046.69;5055298;27;100723;-29
2022/12/01 10:23:26;;;;;;;10.02;4.97;;;;;;;6.09;96.82;103045.69;5035050;27;100873;-30
2022/12/01 10:25:56;;;;;;;9.63;5.30;;;;;;;6.14;96.52;103051.94;4944193;27;96808;-31
2022/12/01 10:28:34;;;;;;;16.85;5.78;;;;;;;6.26;96.19;103046.44;5032807;28;96802;-30
2022/12/01 10:31:39;;;;;;;18.33;5.85;;;;;;;6.49;95.90;103051.66;5033851;28;97935;-30
2022/12/01 10:34:13;;;;;;;9.80;4.78;;;;;;;6.79;94.81;103052.25;4998018;27;101190;-30
2022/12/01 10:36:38;;;;;;;12.70;6.13;;;;;;;6.89;94.04;103055.75;5036225;28;96614;-31
2022/12/01 10:39:05;;;;;;;13.75;6.30;;;;;;;6.99;93.61;103046.66;5037971;28;96712;-31
2022/12/01 10:41:35;;;;;;;13.18;6.32;;;;;;;7.08;92.97;103048.34;5035682;28;100949;-30
2022/12/01 10:44:04;;;;;;;12.02;5.57;;;;;;;7.06;92.85;103042.13;5035647;28;99662;-30
2022/12/01 10:46:41;;;;;;;11.57;5.90;;;;;;;7.04;92.69;103042.13;5036675;27;96663;-30
2022/12/01 10:49:12;;;;;;;17.55;6.68;;;;;;;6.98;92.93;103042.16;5037395;28;96504;-30
2022/12/01 10:51:48;;;;;;;14.13;5.32;;;;;;;7.03;92.99;103037.63;5036643;27;101992;-30
2022/12/01 10:54:14;;;;;;;14.05;5.72;;;;;;;7.09;93.01;103051.03;5035285;28;100792;-31
2022/12/01 10:56:44;;;;;;;12.60;5.45;;;;;;;7.08;92.91;103038.50;5037307;27;96683;-30
2022/12/01 10:59:57;;;;;;;10.25;5.28;;;;;;;7.14;92.79;103049.19;5035650;28;96840;-31
2022/12/01 11:02:25;;;;;;;14.70;6.15;;;;;;;7.14;92.49;103051.88;5027553;27;98533;-30
2022/12/01 11:05:13;;;;;;;9.02;4.30;;;;;;;7.14;92.39;103042.91;5035629;28;101203;-30
2022/12/01 11:07:45;;;;;;;20.55;5.97;;;;;;;7.11;91.85;103035.75;5018495;28;96859;-30
2022/12/01 11:10:24;;;;;;;15.68;6.35;;;;;;;7.11;91.93;103033.06;5035478;28;96845;-30
2022/12/01 11:13:27;;;;;;;11.88;4.22;;;;;;;7.17;92.17;103032.06;5034641;28;100998;-30
2022/12/01 11:15:58;;;;;;;13.50;5.57;;;;;;;7.23;92.14;103034.72;5034858;28;100966;-30
2022/12/01 11:18:32;;;;;;;14.45;5.75;;;;;;;7.25;91.80;103035.59;5035407;28;96532;-29
2022/12/01 11:21:27;;;;;;;8.65;4.18;;;;;;;7.30;92.10;103022.06;5040675;27;96442;-30
2022/12/01 11:23:55;;;;;;;11.85;4.97;;;;;;;7.27;91.27;103022.06;5062821;27;110662;-30
2022/12/01 11:26:33;;;;;;;16.63;6.88;;;;;;;7.30;91.29;103024.75;5058740;27;100973;-30
2022/12/01 11:29:01;;;;;;;14.75;6.25;;;;;;;7.35;91.32;103018.38;5058855;27;96581;-30
2022/12/01 11:31:42;;;;;;;9.88;4.72;;;;;;;7.37;91.17;103021.06;5078040;27;96802;-30
2022/12/01 11:34:24;;;;;;;13.63;5.38;;;;;;;7.36;91.59;103017.44;5058333;27;101285;-30
2022/12/01 11:36:54;;;;;;;20.52;6.20;;;;;;;7.36;91.25;103006.66;5058544;27;100874;-31
2022/12/01 11:39:23;;;;;;;15.38;7.50;;;;;;;7.38;90.92;103014.75;5058215;27;96554;-30